createdAt,value
2019-04-21T00:01:34.697Z,14.00
2019-04-21T00:06:48.400Z,13.90
2019-04-21T00:11:55.689Z,13.80
2019-04-21T00:16:44.116Z,13.80
2019-04-21T00:21:47.848Z,13.70
2019-04-21T00:27:05.615Z,13.60
2019-04-21T00:32:08.730Z,13.50
2019-04-21T00:37:05.873Z,13.50
2019-04-21T00:42:13.991Z,13.40
2019-04-21T00:47:27.918Z,13.20
2019-04-21T00:57:42.623Z,13.00
2019-04-21T01:02:44.446Z,12.90
2019-04-21T01:07:41.629Z,12.80
2019-04-21T01:12:53.590Z,12.70
2019-04-21T01:17:48.002Z,12.60
2019-04-21T01:22:30.645Z,12.50
2019-04-21T01:28:03.875Z,12.40
2019-04-21T01:32:59.504Z,12.30
2019-04-21T01:38:06.878Z,12.30
2019-04-21T01:43:07.411Z,12.20
2019-04-21T01:48:06.223Z,12.10
2019-04-21T01:53:31.080Z,12.10
2019-04-21T01:58:28.885Z,12.00
2019-04-21T02:03:52.905Z,11.90
2019-04-21T02:08:45.879Z,11.90
2019-04-21T02:13:57.248Z,11.80
2019-04-21T02:18:49.782Z,11.80
2019-04-21T02:23:58.733Z,11.80
2019-04-21T02:34:16.981Z,11.60
2019-04-21T02:39:20.172Z,11.60
2019-04-21T02:54:48.346Z,11.40
2019-04-21T03:05:01.754Z,11.30
2019-04-21T03:09:46.204Z,11.30
2019-04-21T03:25:23.521Z,11.10
2019-04-21T03:30:26.316Z,11.10
2019-04-21T03:40:15.218Z,11.00
2019-04-21T03:45:23.382Z,10.90
2019-04-21T03:50:22.696Z,10.90
2019-04-21T04:06:05.391Z,10.80
2019-04-21T04:11:08.302Z,10.70
2019-04-21T04:31:25.809Z,10.40
2019-04-21T04:36:23.937Z,10.40
2019-04-21T04:41:32.346Z,10.40
2019-04-21T04:56:58.654Z,10.20
2019-04-21T05:12:17.531Z,10.10
2019-04-21T05:17:15.729Z,10.10
2019-04-21T05:22:20.237Z,10.10
2019-04-21T05:27:08.625Z,10.10
2019-04-21T05:32:17.213Z,10.20
2019-04-21T05:37:32.641Z,10.20
2019-04-21T05:42:29.296Z,10.30
2019-04-21T05:47:57.884Z,10.40
2019-04-21T05:52:46.013Z,10.40
2019-04-21T05:58:01.301Z,10.50
2019-04-21T06:03:05.382Z,10.60
2019-04-21T06:08:14.611Z,10.70
2019-04-21T06:13:31.935Z,10.80
2019-04-21T06:18:27.374Z,11.00
2019-04-21T06:23:25.465Z,11.20
2019-04-21T06:28:38.138Z,11.40
2019-04-21T06:33:36.282Z,11.70
2019-04-21T06:39:01.776Z,12.00
2019-04-21T06:44:13.027Z,12.20
2019-04-21T06:49:15.692Z,12.30
2019-04-21T06:54:23.848Z,12.50
2019-04-21T06:59:29.999Z,12.80
2019-04-21T07:04:36.502Z,13.10
2019-04-21T07:09:36.329Z,13.50
2019-04-21T07:14:49.720Z,13.80
2019-04-21T07:19:48.054Z,14.00
2019-04-21T07:24:48.215Z,14.20
2019-04-21T07:29:53.400Z,14.30
2019-04-21T07:34:57.693Z,14.40
2019-04-21T07:40:02.624Z,14.70
2019-04-21T07:44:59.352Z,14.90
2019-04-21T07:50:14.583Z,15.30
2019-04-21T08:05:53.503Z,16.40
2019-04-21T08:10:52.589Z,16.80
2019-04-21T08:15:58.087Z,17.20
2019-04-21T08:21:02.703Z,17.60
2019-04-21T08:26:06.525Z,18.00
2019-04-21T08:31:09.954Z,18.40
2019-04-21T08:36:17.709Z,18.70
2019-04-21T08:41:12.251Z,19.00
2019-04-21T08:46:20.402Z,19.10
2019-04-21T08:51:27.514Z,19.40
2019-04-21T08:56:43.202Z,19.70
2019-04-21T09:01:55.784Z,20.10
2019-04-21T09:07:05.106Z,20.40
2019-04-21T09:11:59.680Z,20.50
2019-04-21T09:17:00.365Z,20.50
2019-04-21T09:22:07.136Z,20.70
2019-04-21T09:27:10.046Z,20.80
2019-04-21T09:31:59.454Z,20.90
2019-04-21T09:37:15.247Z,21.00
2019-04-21T09:42:05.076Z,21.20
2019-04-21T09:47:08.808Z,21.30
2019-04-21T09:52:16.100Z,21.40
2019-04-21T09:57:23.961Z,21.50
2019-04-21T10:02:25.318Z,21.50
2019-04-21T10:07:28.219Z,21.40
2019-04-21T10:12:25.652Z,21.30
2019-04-21T10:17:39.382Z,21.30
2019-04-21T10:22:42.927Z,21.20
2019-04-21T10:27:45.267Z,21.20
2019-04-21T10:32:48.198Z,21.10
2019-04-21T10:38:05.309Z,21.10
2019-04-21T10:42:54.152Z,21.10
2019-04-21T10:47:56.857Z,21.10
2019-04-21T10:53:14.295Z,21.10
2019-04-21T10:58:18.471Z,21.10
2019-04-21T11:03:26.846Z,21.20
2019-04-21T11:08:34.171Z,21.40
2019-04-21T11:13:34.775Z,21.40
2019-04-21T11:18:39.785Z,21.60
2019-04-21T11:23:41.717Z,21.60
2019-04-21T11:28:43.415Z,21.60
2019-04-21T11:33:45.276Z,21.70
2019-04-21T11:39:11.019Z,21.70
2019-04-21T11:43:59.180Z,21.80
2019-04-21T11:49:02.364Z,21.90
2019-04-21T11:54:04.603Z,22.00
2019-04-21T11:59:07.971Z,22.00
2019-04-21T12:04:09.803Z,22.10
2019-04-21T12:09:29.566Z,22.20
2019-04-21T12:14:32.109Z,22.30
2019-04-21T12:19:34.715Z,22.40
2019-04-21T12:24:38.059Z,22.40
2019-04-21T12:29:41.837Z,22.50
2019-04-21T12:34:43.799Z,22.60
2019-04-21T12:39:46.585Z,22.60
2019-04-21T12:44:49.504Z,22.60
2019-04-21T12:49:52.042Z,22.60
2019-04-21T12:54:53.651Z,22.70
2019-04-21T12:59:55.396Z,22.80
2019-04-21T13:04:57.808Z,22.80
2019-04-21T13:10:00.131Z,22.70
2019-04-21T13:15:04.098Z,22.80
2019-04-21T13:20:07.675Z,22.80
2019-04-21T13:25:09.845Z,22.80
2019-04-21T13:30:14.893Z,22.80
2019-04-21T13:35:17.055Z,22.80
2019-04-21T13:40:48.651Z,22.80
2019-04-21T13:45:34.303Z,22.90
2019-04-21T13:50:37.297Z,22.90
2019-04-21T13:55:40.648Z,22.90
2019-04-21T14:00:42.272Z,23.00
2019-04-21T14:05:44.507Z,23.00
2019-04-21T14:10:47.304Z,23.00
2019-04-21T14:15:51.652Z,23.00
2019-04-21T14:20:53.372Z,23.10
2019-04-21T14:25:55.665Z,23.10
2019-04-21T14:30:58.663Z,23.00
2019-04-21T14:36:01.099Z,23.00
2019-04-21T14:41:04.050Z,23.00
2019-04-21T14:46:08.938Z,23.20
2019-04-21T14:51:13.255Z,23.10
2019-04-21T14:56:15.400Z,23.10
2019-04-21T15:01:17.821Z,23.10
2019-04-21T15:06:19.318Z,23.10
2019-04-21T15:11:40.126Z,23.00
2019-04-21T15:16:42.821Z,23.10
2019-04-21T15:21:44.681Z,23.10
2019-04-21T15:26:46.477Z,23.10
2019-04-21T15:31:48.383Z,23.10
2019-04-21T15:36:50.400Z,23.10
2019-04-21T15:41:52.497Z,23.10
2019-04-21T15:46:55.592Z,23.00
2019-04-21T15:51:58.116Z,23.10
2019-04-21T15:57:04.919Z,23.00
2019-04-21T16:02:26.416Z,23.00
2019-04-21T16:07:29.777Z,23.00
2019-04-21T16:12:31.923Z,23.00
2019-04-21T16:17:33.562Z,23.00
2019-04-21T16:22:36.738Z,23.00
2019-04-21T16:27:39.345Z,23.00
2019-04-21T16:32:42.032Z,22.90
2019-04-21T16:37:44.084Z,22.90
2019-04-21T16:42:45.876Z,22.90
2019-04-21T16:47:51.725Z,22.90
2019-04-21T16:52:56.300Z,22.90
2019-04-21T16:58:13.086Z,22.90
2019-04-21T17:03:10.503Z,22.70
2019-04-21T17:08:11.989Z,22.60
2019-04-21T17:13:13.956Z,22.60
2019-04-21T17:18:32.865Z,22.60
2019-04-21T17:23:19.791Z,22.50
2019-04-21T17:28:21.641Z,22.40
2019-04-21T17:33:28.006Z,22.20
2019-04-21T17:38:27.962Z,22.10
2019-04-21T17:43:31.860Z,22.00
2019-04-21T17:48:34.675Z,22.00
2019-04-21T17:54:00.421Z,21.90
2019-04-21T17:59:35.860Z,21.70
2019-04-21T18:04:24.317Z,21.70
2019-04-21T18:09:28.924Z,21.50
2019-04-21T18:14:11.458Z,21.40
2019-04-21T18:19:13.084Z,21.30
2019-04-21T18:24:22.247Z,21.10
2019-04-21T18:29:21.614Z,21.00
2019-04-21T18:34:34.233Z,20.80
2019-04-21T18:39:56.092Z,20.70
2019-04-21T18:50:29.429Z,20.30
2019-04-21T18:55:39.138Z,20.10
2019-04-21T19:00:38.009Z,19.90
2019-04-21T19:05:38.876Z,19.70
2019-04-21T19:11:01.829Z,19.60
2019-04-21T19:16:22.554Z,19.40
2019-04-21T19:21:08.828Z,19.30
2019-04-21T19:26:25.889Z,19.10
2019-04-21T19:31:17.131Z,19.00
2019-04-21T19:35:59.749Z,18.80
2019-04-21T19:41:16.677Z,18.70
2019-04-21T19:46:22.461Z,18.50
2019-04-21T19:51:22.015Z,18.40
2019-04-21T19:56:14.142Z,18.30
2019-04-21T20:01:17.366Z,18.10
2019-04-21T20:06:36.151Z,18.00
2019-04-21T20:11:37.149Z,17.90
2019-04-21T20:16:48.108Z,17.80
2019-04-21T20:21:30.950Z,17.70
2019-04-21T20:26:37.888Z,17.60
2019-04-21T20:31:53.081Z,17.40
2019-04-21T20:37:02.160Z,17.30
2019-04-21T20:41:56.018Z,17.10
2019-04-21T20:47:00.915Z,16.90
2019-04-21T20:52:18.710Z,16.80
2019-04-21T20:57:11.472Z,16.70
2019-04-21T21:02:19.099Z,16.60
2019-04-21T21:07:35.661Z,16.50
2019-04-21T21:17:42.044Z,16.40
2019-04-21T21:22:33.505Z,16.30
2019-04-21T21:27:35.168Z,16.30
2019-04-21T21:32:38.579Z,16.30
2019-04-21T21:37:49.046Z,16.30
2019-04-21T21:42:35.354Z,16.30
2019-04-21T21:47:59.668Z,16.20
2019-04-21T21:52:51.247Z,16.10
2019-04-21T21:57:49.907Z,16.10
2019-04-21T22:02:51.339Z,16.10
2019-04-21T22:07:49.641Z,16.10
2019-04-21T22:13:01.859Z,16.00
2019-04-21T22:18:18.463Z,16.00
2019-04-21T22:23:06.425Z,16.00
2019-04-21T22:28:02.219Z,16.00
2019-04-21T22:33:08.537Z,16.00
2019-04-21T22:38:20.755Z,15.90
2019-04-21T22:43:21.639Z,15.70
2019-04-21T22:48:19.578Z,15.60
2019-04-21T22:53:21.247Z,15.40
2019-04-21T22:58:29.327Z,15.20
2019-04-21T23:03:28.885Z,15.10
2019-04-21T23:08:37.049Z,14.80
2019-04-21T23:13:34.749Z,14.60
2019-04-21T23:18:53.000Z,14.50
2019-04-21T23:24:01.758Z,14.50
2019-04-21T23:29:01.991Z,14.40
2019-04-21T23:33:48.433Z,14.40
2019-04-21T23:38:53.227Z,14.20
2019-04-21T23:44:01.872Z,14.20
2019-04-21T23:49:16.052Z,14.10
2019-04-21T23:54:02.756Z,14.00
2019-04-21T23:59:10.270Z,13.90
